Time;durP1;ratioP1;P1;durP2;ratioP2;P2;SDS_P1;SDS_P2;PMS_P1;PMS_P2;Temp;Humidity;BMP_temperature;BMP_pressure;BME280_temperature;BME280_humidity;BME280_pressure;Samples;Min_cycle;Max_cycle;Signal;HPM_P1;HPM_P2
2020/12/26 00:00:38;;;;;;;2.57;2.00;;;2.00;85.90;;;;;;5072308;28;20399;-68
2020/12/26 00:03:07;;;;;;;3.88;2.50;;;2.00;87.20;;;;;;5068673;28;20957;-71
2020/12/26 00:05:36;;;;;;;6.15;3.50;;;2.00;86.80;;;;;;5054583;28;20546;-69
2020/12/26 00:08:03;;;;;;;10.88;4.50;;;2.00;86.90;;;;;;5051474;28;20415;-71
2020/12/26 00:10:29;;;;;;;8.88;4.63;;;1.90;87.80;;;;;;5054313;28;20399;-69
2020/12/26 00:12:55;;;;;;;7.38;4.00;;;2.00;88.80;;;;;;5040661;28;20417;-69
2020/12/26 00:15:24;;;;;;;7.78;4.13;;;2.00;90.20;;;;;;5034780;28;20406;-69
2020/12/26 00:17:50;;;;;;;8.85;4.13;;;2.00;90.60;;;;;;5037103;28;20516;-69
2020/12/26 00:20:20;;;;;;;8.15;4.65;;;1.90;91.00;;;;;;5054210;28;20780;-69
2020/12/26 00:22:47;;;;;;;19.60;9.70;;;1.90;91.40;;;;;;5068254;28;20484;-69
2020/12/26 00:25:13;;;;;;;38.03;18.67;;;1.80;91.50;;;;;;5054224;28;21068;-69
2020/12/26 00:27:39;;;;;;;38.88;18.75;;;1.80;91.60;;;;;;5070967;28;20465;-69
2020/12/26 00:30:06;;;;;;;15.38;8.90;;;1.80;91.80;;;;;;5051909;28;20411;-69
2020/12/26 00:32:36;;;;;;;5.70;3.60;;;1.80;92.00;;;;;;5054536;28;20412;-69
2020/12/26 00:35:02;;;;;;;7.82;4.50;;;1.80;91.40;;;;;;5050093;28;20443;-69
2020/12/26 00:37:29;;;;;;;5.93;3.50;;;1.70;91.80;;;;;;5071999;28;20469;-69
2020/12/26 00:40:00;;;;;;;4.70;3.80;;;1.80;91.60;;;;;;5068334;28;20469;-69
2020/12/26 00:42:26;;;;;;;5.72;4.13;;;1.80;91.90;;;;;;5053831;28;20860;-69
2020/12/26 00:44:52;;;;;;;6.80;4.60;;;1.70;91.90;;;;;;5068232;28;20473;-69
2020/12/26 00:47:19;;;;;;;7.40;4.60;;;1.70;92.20;;;;;;5071469;28;20441;-69
2020/12/26 00:49:45;;;;;;;7.00;4.70;;;1.70;92.40;;;;;;5067809;28;20412;-69
2020/12/26 00:52:12;;;;;;;5.72;4.55;;;1.70;92.30;;;;;;5054056;28;20418;-69
2020/12/26 00:54:40;;;;;;;7.83;4.50;;;1.70;92.40;;;;;;5064680;28;20460;-69
2020/12/26 00:57:07;;;;;;;6.68;4.50;;;1.70;92.50;;;;;;5051243;28;20479;-69
2020/12/26 00:59:33;;;;;;;10.23;5.90;;;1.80;92.60;;;;;;5048879;28;20422;-69
2020/12/26 01:02:00;;;;;;;10.73;6.88;;;1.80;92.60;;;;;;5033263;28;20425;-69
2020/12/26 01:04:26;;;;;;;11.98;6.45;;;1.80;92.80;;;;;;5033579;28;20838;-69
2020/12/26 01:06:57;;;;;;;14.82;7.70;;;1.80;92.80;;;;;;5030923;28;20778;-69
2020/12/26 01:09:24;;;;;;;15.07;8.75;;;1.70;92.50;;;;;;5033688;28;20478;-69
2020/12/26 01:11:53;;;;;;;15.02;8.95;;;1.70;92.30;;;;;;5062221;28;21008;-69
2020/12/26 01:14:22;;;;;;;16.33;8.70;;;1.70;92.30;;;;;;5070835;28;20864;-69
2020/12/26 01:16:50;;;;;;;13.10;7.32;;;1.70;92.30;;;;;;5049592;28;20483;-69
2020/12/26 01:19:17;;;;;;;14.05;8.20;;;1.80;92.20;;;;;;5070613;28;20400;-69
2020/12/26 01:21:55;;;;;;;11.98;7.10;;;1.80;92.60;;;;;;5050088;28;20411;-69
2020/12/26 01:24:24;;;;;;;8.07;4.47;;;1.70;92.80;;;;;;5053051;28;20408;-69
2020/12/26 01:26:51;;;;;;;8.13;5.00;;;1.70;92.90;;;;;;5067578;28;20795;-69
2020/12/26 01:29:18;;;;;;;7.32;5.00;;;1.70;93.00;;;;;;5070833;28;20461;-69
2020/12/26 01:31:54;;;;;;;9.65;5.80;;;1.70;93.10;;;;;;5067213;28;20403;-69
2020/12/26 01:34:21;;;;;;;8.17;4.80;;;1.70;93.20;;;;;;5070400;28;20408;-69
2020/12/26 01:36:51;;;;;;;5.83;4.10;;;1.70;93.20;;;;;;5066558;28;20492;-69
2020/12/26 01:39:18;;;;;;;7.55;4.78;;;1.70;93.10;;;;;;5070741;28;20423;-69
2020/12/26 01:41:51;;;;;;;7.32;4.63;;;1.70;93.20;;;;;;5069648;28;20451;-69
2020/12/26 01:44:17;;;;;;;6.38;4.72;;;1.70;93.30;;;;;;5068214;28;20411;-69
2020/12/26 01:46:46;;;;;;;7.68;4.78;;;1.70;93.30;;;;;;5053270;28;20395;-69
2020/12/26 01:49:15;;;;;;;7.25;4.85;;;1.70;93.40;;;;;;5066765;28;20850;-69
2020/12/26 01:51:43;;;;;;;7.50;4.85;;;1.70;93.40;;;;;;5053028;28;20508;-69
2020/12/26 01:54:10;;;;;;;6.70;4.40;;;1.70;93.50;;;;;;5066970;28;20443;-69
2020/12/26 01:56:43;;;;;;;5.60;4.18;;;1.70;92.50;;;;;;5052743;28;20495;-69
2020/12/26 01:59:10;;;;;;;4.75;4.10;;;1.70;92.80;;;;;;5067032;28;20395;-69
2020/12/26 02:01:38;;;;;;;6.47;4.30;;;1.80;92.90;;;;;;5070594;28;20399;-69
2020/12/26 02:04:08;;;;;;;6.03;4.20;;;1.80;92.40;;;;;;5066792;28;20465;-69
2020/12/26 02:06:43;;;;;;;7.60;4.22;;;1.70;92.50;;;;;;5052845;28;20399;-69
2020/12/26 02:09:11;;;;;;;8.05;5.50;;;1.70;92.70;;;;;;5049155;28;20461;-69
2020/12/26 02:11:41;;;;;;;7.68;4.72;;;1.60;92.90;;;;;;5070310;28;20492;-69
2020/12/26 02:14:07;;;;;;;6.93;4.90;;;1.70;92.80;;;;;;5047061;28;20421;-69
2020/12/26 02:16:50;;;;;;;5.50;3.83;;;1.60;93.00;;;;;;5050294;28;20475;-69
2020/12/26 02:19:22;;;;;;;4.60;3.35;;;1.60;93.00;;;;;;5029618;28;20405;-69
2020/12/26 02:21:50;;;;;;;5.40;3.38;;;1.60;91.90;;;;;;5049884;28;20421;-69
2020/12/26 02:24:16;;;;;;;4.30;3.30;;;1.60;92.00;;;;;;5031742;28;20433;-69
2020/12/26 02:26:43;;;;;;;4.55;3.42;;;1.60;91.90;;;;;;5048691;28;20414;-69
2020/12/26 02:29:09;;;;;;;5.18;3.70;;;1.60;91.70;;;;;;5032556;28;20463;-69
2020/12/26 02:31:38;;;;;;;5.53;3.80;;;1.60;91.70;;;;;;5046094;28;20727;-69
2020/12/26 02:34:05;;;;;;;4.72;3.88;;;1.60;91.90;;;;;;5032388;28;20418;-69
2020/12/26 02:36:35;;;;;;;5.75;3.38;;;1.50;91.90;;;;;;5049361;28;20413;-69
2020/12/26 02:39:08;;;;;;;4.43;3.58;;;1.50;91.80;;;;;;5036768;28;20405;-69
2020/12/26 02:41:36;;;;;;;4.82;3.60;;;1.50;91.30;;;;;;5032947;28;20408;-69
2020/12/26 02:44:03;;;;;;;6.87;4.63;;;1.50;91.80;;;;;;5054033;28;20512;-69
2020/12/26 02:46:30;;;;;;;4.97;3.65;;;1.50;91.90;;;;;;5050419;28;20468;-69
2020/12/26 02:48:56;;;;;;;4.97;3.58;;;1.40;91.90;;;;;;5036650;28;20768;-69
2020/12/26 02:51:23;;;;;;;4.28;3.58;;;1.50;91.50;;;;;;5033045;28;20455;-69
2020/12/26 02:53:51;;;;;;;4.23;3.50;;;1.60;91.40;;;;;;5036160;28;20437;-69
2020/12/26 02:56:18;;;;;;;5.03;3.45;;;1.50;91.60;;;;;;5050102;28;20432;-69
2020/12/26 02:58:45;;;;;;;4.68;3.65;;;1.50;91.70;;;;;;5035756;28;20474;-69
2020/12/26 03:01:12;;;;;;;5.38;3.50;;;1.50;91.80;;;;;;5053611;28;20409;-69
2020/12/26 03:03:38;;;;;;;4.30;3.70;;;1.50;92.10;;;;;;5032617;28;20901;-69
2020/12/26 03:06:04;;;;;;;5.88;4.20;;;1.40;91.70;;;;;;5053761;28;20417;-69
2020/12/26 03:08:31;;;;;;;5.68;4.43;;;1.40;91.90;;;;;;5028892;28;20434;-69
2020/12/26 03:11:00;;;;;;;5.83;4.10;;;1.40;92.30;;;;;;5033156;28;20497;-69
2020/12/26 03:13:29;;;;;;;5.47;3.90;;;1.40;92.10;;;;;;5056525;28;20821;-69
2020/12/26 03:15:58;;;;;;;4.43;3.90;;;1.40;92.30;;;;;;5073563;28;20492;-69
2020/12/26 03:18:26;;;;;;;5.35;4.18;;;1.40;92.40;;;;;;5069761;28;20422;-69
2020/12/26 03:21:01;;;;;;;5.90;4.10;;;1.40;92.30;;;;;;5073144;28;20412;-69
2020/12/26 03:23:30;;;;;;;4.88;4.10;;;1.40;92.20;;;;;;5069497;28;20826;-69
2020/12/26 03:25:56;;;;;;;5.65;4.35;;;1.50;92.20;;;;;;5072859;28;20418;-69
2020/12/26 03:28:25;;;;;;;5.57;4.55;;;1.40;92.30;;;;;;5051867;28;20461;-69
2020/12/26 03:30:51;;;;;;;6.80;4.60;;;1.40;92.50;;;;;;5055418;28;20469;-69
2020/12/26 03:33:20;;;;;;;6.70;4.93;;;1.40;92.50;;;;;;5069463;28;20447;-69
2020/12/26 03:35:46;;;;;;;8.60;5.28;;;1.30;92.70;;;;;;5055864;28;20430;-69
2020/12/26 03:38:13;;;;;;;9.80;6.78;;;1.30;92.70;;;;;;5072409;28;20469;-69
2020/12/26 03:40:39;;;;;;;8.63;7.03;;;1.30;92.70;;;;;;5069264;28;20797;-69
2020/12/26 03:43:08;;;;;;;9.00;7.30;;;1.30;92.80;;;;;;5072872;28;20424;-69
2020/12/26 03:45:34;;;;;;;9.90;7.20;;;1.30;92.90;;;;;;5068968;28;20399;-69
2020/12/26 03:48:00;;;;;;;9.07;7.47;;;1.30;92.80;;;;;;5072376;28;20396;-69
2020/12/26 03:50:27;;;;;;;9.95;6.82;;;1.30;92.70;;;;;;5069028;28;20791;-69
2020/12/26 03:52:58;;;;;;;9.18;7.40;;;1.30;92.80;;;;;;5055529;28;20438;-69
2020/12/26 03:55:25;;;;;;;11.18;8.18;;;1.30;93.00;;;;;;5069234;28;20411;-69
2020/12/26 03:57:51;;;;;;;13.82;9.32;;;1.30;92.90;;;;;;5054890;28;20486;-69
2020/12/26 04:00:17;;;;;;;9.57;8.10;;;1.40;93.00;;;;;;5041634;28;20447;-68
2020/12/26 04:02:44;;;;;;;12.13;8.05;;;1.40;92.90;;;;;;5071967;28;20498;-69
2020/12/26 04:05:15;;;;;;;9.98;8.13;;;1.40;93.00;;;;;;5068742;28;20468;-69
2020/12/26 04:07:41;;;;;;;11.10;8.82;;;1.40;93.20;;;;;;5054860;28;20403;-69
2020/12/26 04:10:07;;;;;;;9.75;8.15;;;1.40;93.10;;;;;;5071827;28;20852;-69
2020/12/26 04:12:41;;;;;;;10.10;8.32;;;1.40;93.10;;;;;;5050263;28;20558;-69
2020/12/26 04:15:08;;;;;;;12.77;8.63;;;1.40;93.10;;;;;;5071858;28;20898;-69
2020/12/26 04:17:34;;;;;;;11.57;8.82;;;1.30;93.10;;;;;;5052736;28;20876;-69
2020/12/26 04:20:00;;;;;;;14.90;10.45;;;1.50;93.00;;;;;;5052041;28;20401;-69
2020/12/26 04:22:27;;;;;;;14.43;11.18;;;1.40;92.70;;;;;;5031938;28;20519;-69
2020/12/26 04:24:53;;;;;;;13.47;10.73;;;1.40;92.60;;;;;;5034336;28;20459;-69
2020/12/26 04:27:19;;;;;;;13.88;11.20;;;1.40;92.50;;;;;;5040062;28;20799;-69
2020/12/26 04:29:46;;;;;;;14.77;11.25;;;1.40;92.70;;;;;;5054661;28;20473;-69
2020/12/26 04:32:12;;;;;;;14.88;11.35;;;1.30;92.80;;;;;;5068745;28;20439;-69
2020/12/26 04:34:38;;;;;;;13.77;11.00;;;1.30;92.60;;;;;;5071395;28;20435;-69
2020/12/26 04:37:05;;;;;;;13.90;11.27;;;1.40;92.30;;;;;;5051069;28;20404;-69
2020/12/26 04:39:31;;;;;;;14.85;11.30;;;1.40;92.40;;;;;;5054315;28;20839;-69
2020/12/26 04:41:58;;;;;;;14.48;11.38;;;1.40;92.50;;;;;;5054062;28;20863;-69
2020/12/26 04:44:25;;;;;;;14.20;10.98;;;1.30;92.00;;;;;;5068452;28;21163;-69
2020/12/26 04:46:55;;;;;;;13.27;10.93;;;1.30;92.10;;;;;;5053930;28;20872;-69
2020/12/26 04:49:21;;;;;;;16.17;11.18;;;1.30;91.80;;;;;;5050067;28;20407;-69
2020/12/26 04:51:51;;;;;;;13.23;10.70;;;1.40;91.80;;;;;;5054195;28;20400;-69
2020/12/26 04:54:32;;;;;;;13.27;10.60;;;1.30;91.20;;;;;;5037600;28;20409;-69
2020/12/26 04:56:58;;;;;;;13.07;10.07;;;1.40;91.60;;;;;;5051148;28;20441;-69
2020/12/26 04:59:25;;;;;;;13.35;10.30;;;1.40;91.50;;;;;;5059093;28;20872;-69
2020/12/26 05:01:52;;;;;;;14.63;10.73;;;1.30;91.70;;;;;;5071086;28;20435;-69
2020/12/26 05:04:19;;;;;;;13.57;10.70;;;1.40;91.70;;;;;;5050258;28;20477;-69
2020/12/26 05:06:53;;;;;;;14.65;10.85;;;1.40;91.60;;;;;;5053753;28;20396;-69
2020/12/26 05:09:22;;;;;;;16.25;11.57;;;1.40;91.60;;;;;;5044273;28;20458;-69
2020/12/26 05:11:58;;;;;;;13.77;10.90;;;1.40;91.80;;;;;;5050688;28;20880;-69
2020/12/26 05:14:26;;;;;;;14.88;11.77;;;1.40;91.70;;;;;;5034626;28;20443;-69
2020/12/26 05:16:53;;;;;;;14.23;11.05;;;1.40;92.00;;;;;;5053584;28;20403;-69
2020/12/26 05:19:22;;;;;;;13.48;10.73;;;1.40;92.10;;;;;;5049901;28;20407;-69
2020/12/26 05:21:58;;;;;;;15.50;11.00;;;1.40;92.10;;;;;;5070822;28;20412;-69
2020/12/26 05:24:24;;;;;;;14.30;11.25;;;1.40;92.00;;;;;;5052914;28;20458;-69
2020/12/26 05:26:55;;;;;;;15.40;11.60;;;1.40;92.20;;;;;;5067214;28;20864;-69
2020/12/26 05:29:22;;;;;;;24.25;18.60;;;1.40;92.10;;;;;;5052894;28;20465;-69
2020/12/26 05:31:58;;;;;;;16.60;13.80;;;1.40;91.50;;;;;;5049787;28;20411;-69
2020/12/26 05:34:42;;;;;;;13.02;10.32;;;1.40;91.60;;;;;;5070582;28;20462;-69
2020/12/26 05:37:08;;;;;;;12.52;9.88;;;1.40;91.40;;;;;;5049855;28;20503;-69
2020/12/26 05:39:38;;;;;;;12.35;9.15;;;1.40;91.70;;;;;;5070952;28;20465;-69
2020/12/26 05:42:06;;;;;;;10.95;9.05;;;1.40;91.50;;;;;;5049033;28;20403;-69
2020/12/26 05:44:38;;;;;;;11.40;8.82;;;1.30;91.70;;;;;;5053257;28;20479;-69
2020/12/26 05:47:06;;;;;;;10.68;8.85;;;1.40;91.70;;;;;;5049879;28;20779;-69
2020/12/26 05:49:35;;;;;;;11.05;8.90;;;1.40;91.70;;;;;;5070370;28;20403;-69
2020/12/26 05:52:07;;;;;;;11.05;8.40;;;1.30;91.50;;;;;;5041376;28;20406;-69
2020/12/26 05:54:34;;;;;;;12.05;8.48;;;1.30;91.70;;;;;;5032994;28;20433;-69
2020/12/26 05:57:09;;;;;;;10.02;8.02;;;1.30;91.70;;;;;;5053204;28;20411;-69
2020/12/26 05:59:36;;;;;;;12.23;8.88;;;1.30;91.60;;;;;;5070017;28;20461;-69
2020/12/26 06:02:25;;;;;;;11.60;8.40;;;1.30;91.60;;;;;;5048869;28;20407;-69
2020/12/26 06:05:18;;;;;;;9.48;7.75;;;1.30;91.40;;;;;;5070348;28;20400;-69
2020/12/26 06:07:45;;;;;;;10.70;7.80;;;1.30;91.60;;;;;;5055152;28;20413;-69
2020/12/26 06:10:11;;;;;;;9.68;7.15;;;1.30;91.40;;;;;;5049912;28;20465;-69
2020/12/26 06:12:41;;;;;;;9.07;6.97;;;1.30;90.80;;;;;;5049425;28;20518;-69
2020/12/26 06:15:07;;;;;;;8.38;6.47;;;1.30;91.10;;;;;;5052520;28;20407;-69
2020/12/26 06:17:34;;;;;;;9.88;6.43;;;1.30;90.60;;;;;;5067247;28;20468;-69
2020/12/26 06:20:07;;;;;;;8.15;5.70;;;1.30;89.90;;;;;;5049879;28;20428;-69
2020/12/26 06:22:51;;;;;;;8.07;5.90;;;1.30;90.10;;;;;;5050236;28;20596;-69
2020/12/26 06:25:22;;;;;;;8.45;5.60;;;1.20;90.20;;;;;;5049086;28;20471;-68
2020/12/26 06:27:54;;;;;;;6.07;4.90;;;1.20;89.90;;;;;;5050615;28;20410;-68
2020/12/26 06:30:22;;;;;;;5.93;4.90;;;1.20;89.50;;;;;;5048043;28;20464;-69
2020/12/26 06:32:51;;;;;;;7.22;5.07;;;1.20;89.80;;;;;;5051384;28;20442;-68
2020/12/26 06:35:19;;;;;;;6.30;5.03;;;1.20;90.20;;;;;;5066220;28;20473;-69
2020/12/26 06:37:48;;;;;;;6.05;4.50;;;1.20;89.80;;;;;;5070214;28;20412;-68
2020/12/26 06:40:27;;;;;;;6.82;5.15;;;1.20;90.00;;;;;;5066445;28;20414;-69
2020/12/26 06:42:54;;;;;;;6.18;4.50;;;1.20;89.10;;;;;;5070371;28;20504;-69
2020/12/26 06:45:34;;;;;;;5.80;4.85;;;1.20;87.60;;;;;;5049368;28;20839;-68
2020/12/26 06:48:01;;;;;;;6.95;4.90;;;1.20;88.20;;;;;;5052434;28;20465;-68
2020/12/26 06:50:30;;;;;;;5.90;4.80;;;1.30;87.90;;;;;;5066478;28;20930;-69
2020/12/26 06:52:56;;;;;;;7.70;4.80;;;1.20;88.40;;;;;;5052208;28;20468;-68
2020/12/26 06:55:41;;;;;;;8.00;5.22;;;1.20;88.60;;;;;;5066418;28;20471;-69
2020/12/26 06:58:10;;;;;;;7.55;5.03;;;1.20;88.90;;;;;;5069571;28;20938;-68
2020/12/26 07:00:37;;;;;;;7.78;5.05;;;1.10;88.80;;;;;;5038095;28;20439;-68
2020/12/26 07:03:25;;;;;;;7.80;4.95;;;1.10;89.20;;;;;;5051568;28;20439;-68
2020/12/26 07:05:53;;;;;;;6.47;5.07;;;1.10;89.10;;;;;;5066564;28;20404;-68
2020/12/26 07:08:23;;;;;;;7.97;4.65;;;1.10;88.60;;;;;;5069678;28;20736;-68
2020/12/26 07:10:49;;;;;;;9.00;4.53;;;1.20;88.00;;;;;;5066016;28;20444;-69
2020/12/26 07:13:45;;;;;;;9.48;4.72;;;1.20;88.60;;;;;;5069646;28;20485;-68
2020/12/26 07:16:36;;;;;;;6.78;5.20;;;1.20;88.60;;;;;;5066414;28;20454;-68
2020/12/26 07:19:29;;;;;;;8.68;6.60;;;1.20;89.00;;;;;;5051169;28;20431;-68
2020/12/26 07:22:05;;;;;;;10.50;7.13;;;1.10;89.20;;;;;;5049971;28;20408;-68
2020/12/26 07:24:39;;;;;;;14.82;8.10;;;1.20;89.70;;;;;;5073406;28;20526;-68
2020/12/26 07:27:21;;;;;;;12.63;8.47;;;1.20;89.10;;;;;;5069520;28;20404;-68
2020/12/26 07:29:59;;;;;;;10.52;6.82;;;1.20;89.70;;;;;;5055013;28;20443;-68
2020/12/26 07:32:35;;;;;;;9.68;6.00;;;1.30;89.50;;;;;;5050037;28;20419;-68
2020/12/26 07:35:22;;;;;;;7.85;6.07;;;1.30;89.60;;;;;;5072958;28;20403;-68
2020/12/26 07:37:51;;;;;;;7.03;5.55;;;1.30;88.00;;;;;;5046120;28;20541;-68
2020/12/26 07:40:20;;;;;;;7.13;5.18;;;1.30;89.00;;;;;;5072652;28;20407;-70
2020/12/26 07:42:46;;;;;;;7.78;4.53;;;1.30;88.80;;;;;;5069261;28;20455;-69
2020/12/26 07:45:15;;;;;;;7.38;4.78;;;1.30;88.30;;;;;;5055583;28;20765;-69
2020/12/26 07:47:43;;;;;;;8.90;5.75;;;1.30;88.00;;;;;;5069404;28;20473;-67
2020/12/26 07:50:11;;;;;;;11.63;7.13;;;1.30;87.40;;;;;;5072221;28;21002;-67
2020/12/26 07:52:37;;;;;;;12.05;6.38;;;1.30;88.20;;;;;;5072996;28;20751;-67
2020/12/26 07:55:04;;;;;;;9.35;5.85;;;1.40;88.00;;;;;;5051758;28;20400;-67
2020/12/26 07:57:31;;;;;;;8.52;5.22;;;1.40;88.30;;;;;;5072624;28;20407;-67
2020/12/26 08:00:02;;;;;;;8.95;5.70;;;1.40;86.50;;;;;;5068905;28;20414;-67
2020/12/26 08:02:29;;;;;;;8.05;5.68;;;1.40;87.70;;;;;;5055255;28;20412;-67
2020/12/26 08:04:58;;;;;;;6.13;4.07;;;1.40;87.90;;;;;;5051374;28;20408;-67
2020/12/26 08:07:32;;;;;;;7.47;4.65;;;1.50;85.00;;;;;;5072285;28;20902;-67
2020/12/26 08:09:59;;;;;;;5.30;3.65;;;1.40;84.80;;;;;;5051065;28;20408;-67
2020/12/26 08:12:26;;;;;;;7.38;3.78;;;1.40;83.00;;;;;;5071988;28;20419;-70
2020/12/26 08:15:00;;;;;;;5.15;3.40;;;1.40;83.90;;;;;;5068873;28;20435;-70
2020/12/26 08:17:28;;;;;;;6.35;4.00;;;1.40;81.80;;;;;;5054495;28;20848;-70
2020/12/26 08:20:01;;;;;;;173.82;96.78;;;1.40;82.90;;;;;;5069008;28;20686;-70
2020/12/26 08:22:28;;;;;;;15.50;8.90;;;1.40;83.40;;;;;;5070309;28;20511;-67
2020/12/26 08:25:08;;;;;;;3.72;2.58;;;1.50;83.30;;;;;;5068058;28;20480;-67
2020/12/26 08:27:40;;;;;;;5.95;3.22;;;1.50;80.10;;;;;;5071335;28;20489;-67
2020/12/26 08:30:11;;;;;;;6.13;3.33;;;1.50;78.50;;;;;;5068577;28;20396;-67
2020/12/26 08:33:17;;;;;;;4.20;2.37;;;1.50;78.00;;;;;;5071059;28;20439;-67
2020/12/26 08:36:06;;;;;;;7.70;3.08;;;1.60;76.60;;;;;;4967652;28;20494;-67
2020/12/26 08:39:07;;;;;;;4.45;2.35;;;1.50;77.50;;;;;;5083393;28;20408;-67
2020/12/26 08:41:45;;;;;;;3.25;2.05;;;1.50;76.40;;;;;;5009231;28;20423;-67
2020/12/26 08:44:16;;;;;;;4.25;1.95;;;1.50;74.80;;;;;;5054525;28;20503;-67
2020/12/26 08:46:47;;;;;;;2.92;2.00;;;1.40;73.20;;;;;;5044537;28;20471;-67
2020/12/26 08:49:14;;;;;;;7.95;3.33;;;1.40;75.40;;;;;;5051179;28;20448;-67
2020/12/26 08:51:45;;;;;;;12.32;5.65;;;1.40;76.10;;;;;;5040871;28;20407;-67
2020/12/26 08:54:18;;;;;;;9.63;4.68;;;1.40;75.80;;;;;;5072008;28;20473;-67
2020/12/26 08:56:47;;;;;;;9.43;6.43;;;1.40;77.30;;;;;;5050376;28;20427;-67
2020/12/26 08:59:25;;;;;;;12.88;7.78;;;1.50;76.30;;;;;;5071187;28;20445;-67
2020/12/26 09:01:56;;;;;;;5.60;3.93;;;1.50;77.30;;;;;;5067795;28;20411;-67
2020/12/26 09:04:23;;;;;;;4.07;3.07;;;1.40;74.40;;;;;;5071027;28;20434;-67
2020/12/26 09:06:49;;;;;;;3.90;2.20;;;1.30;75.20;;;;;;5050936;28;20433;-67
2020/12/26 09:09:20;;;;;;;4.00;3.10;;;1.30;76.00;;;;;;5065763;28;20415;-67
2020/12/26 09:11:58;;;;;;;6.55;3.08;;;1.30;76.70;;;;;;5071106;28;20450;-68
2020/12/26 09:14:25;;;;;;;6.22;3.00;;;1.30;77.90;;;;;;5049798;28;20953;-67
2020/12/26 09:17:02;;;;;;;6.65;2.80;;;1.30;76.50;;;;;;5071393;28;20465;-67
2020/12/26 09:19:45;;;;;;;10.75;5.43;;;1.40;77.90;;;;;;5049908;28;20891;-70
2020/12/26 09:22:13;;;;;;;6.97;4.10;;;1.50;75.70;;;;;;5071046;28;20461;-70
2020/12/26 09:24:41;;;;;;;5.45;2.85;;;1.60;76.20;;;;;;5067421;28;20498;-70
2020/12/26 09:27:20;;;;;;;4.72;2.35;;;1.70;75.20;;;;;;5053298;28;20734;-70
2020/12/26 09:29:51;;;;;;;4.20;3.38;;;1.70;73.90;;;;;;5066609;28;20418;-70
2020/12/26 09:32:20;;;;;;;5.28;2.20;;;1.80;73.90;;;;;;5070924;28;20414;-70
2020/12/26 09:34:46;;;;;;;5.15;2.80;;;1.80;73.60;;;;;;5064344;28;20500;-70
2020/12/26 09:37:12;;;;;;;4.72;2.70;;;1.80;73.90;;;;;;5057740;28;20530;-70
2020/12/26 09:39:39;;;;;;;5.07;2.63;;;1.70;74.20;;;;;;5044294;28;20405;-68
2020/12/26 09:42:08;;;;;;;5.85;2.38;;;1.70;73.60;;;;;;5037105;28;20848;-67
2020/12/26 09:44:37;;;;;;;4.38;2.90;;;1.80;72.20;;;;;;5065777;28;20430;-67
2020/12/26 09:47:04;;;;;;;4.27;2.73;;;2.00;72.70;;;;;;5052022;28;20721;-67
2020/12/26 09:49:31;;;;;;;4.90;2.60;;;2.00;73.90;;;;;;5049289;28;20404;-67
2020/12/26 09:51:59;;;;;;;3.63;2.30;;;2.00;72.00;;;;;;5031314;28;20413;-67
2020/12/26 09:54:28;;;;;;;4.18;2.20;;;2.00;72.30;;;;;;5055698;28;20418;-67
2020/12/26 09:56:55;;;;;;;3.78;2.40;;;2.10;73.20;;;;;;5048360;28;21308;-67
2020/12/26 09:59:21;;;;;;;4.30;2.72;;;2.10;72.90;;;;;;5069609;28;20490;-68
2020/12/26 10:01:48;;;;;;;5.40;2.77;;;2.10;72.00;;;;;;5036650;28;20413;-70
2020/12/26 10:04:14;;;;;;;4.90;2.00;;;2.20;72.90;;;;;;5051804;28;20424;-67
2020/12/26 10:06:43;;;;;;;5.90;2.85;;;2.30;69.20;;;;;;5066200;28;20537;-67
2020/12/26 10:09:12;;;;;;;3.65;2.33;;;2.30;70.80;;;;;;5051880;28;20400;-67
2020/12/26 10:11:38;;;;;;;5.45;2.42;;;2.20;68.00;;;;;;5065896;28;20454;-70
2020/12/26 10:14:05;;;;;;;4.50;2.30;;;2.20;70.20;;;;;;5030922;28;20431;-67
2020/12/26 10:16:31;;;;;;;16.85;7.05;;;2.30;70.30;;;;;;5055746;28;20447;-68
2020/12/26 10:19:00;;;;;;;16.92;6.50;;;2.40;68.80;;;;;;5060081;28;20415;-67
2020/12/26 10:21:26;;;;;;;16.25;6.18;;;2.50;66.40;;;;;;5032298;28;20526;-67
2020/12/26 10:23:56;;;;;;;10.68;4.55;;;2.40;66.30;;;;;;5047962;28;20453;-70
2020/12/26 10:26:22;;;;;;;12.38;5.20;;;2.10;67.70;;;;;;5050432;28;20855;-68
2020/12/26 10:28:48;;;;;;;13.03;5.33;;;2.10;69.40;;;;;;5030588;28;20550;-68
2020/12/26 10:31:15;;;;;;;21.33;7.93;;;2.20;69.80;;;;;;5038649;28;20469;-68
2020/12/26 10:33:43;;;;;;;19.17;7.45;;;2.40;67.40;;;;;;5051635;28;20487;-68
2020/12/26 10:36:12;;;;;;;23.00;9.60;;;2.40;70.00;;;;;;5049474;28;20452;-68
2020/12/26 10:38:38;;;;;;;19.20;7.38;;;2.30;67.80;;;;;;5046632;28;20441;-68
2020/12/26 10:41:05;;;;;;;7.70;4.10;;;2.30;68.10;;;;;;5049939;28;20467;-68
2020/12/26 10:43:32;;;;;;;7.80;3.70;;;2.40;66.80;;;;;;5045984;28;20425;-68
2020/12/26 10:46:01;;;;;;;6.30;2.90;;;2.40;66.80;;;;;;5050001;28;20454;-68
2020/12/26 10:48:27;;;;;;;11.80;4.63;;;3.40;65.70;;;;;;5024370;28;20868;-68
2020/12/26 10:50:54;;;;;;;10.35;3.60;;;4.60;60.30;;;;;;5000062;28;20422;-68
2020/12/26 10:53:20;;;;;;;3.90;2.03;;;4.60;61.00;;;;;;5013712;28;20483;-68
2020/12/26 10:55:55;;;;;;;15.43;5.97;;;4.70;57.90;;;;;;5050608;28;20424;-68
2020/12/26 10:58:22;;;;;;;9.82;5.03;;;4.50;57.30;;;;;;5052797;28;20456;-68
2020/12/26 11:00:48;;;;;;;6.82;4.03;;;4.10;59.90;;;;;;5034245;28;20514;-68
2020/12/26 11:03:14;;;;;;;5.00;3.15;;;3.90;61.20;;;;;;5053867;28;20455;-68
2020/12/26 11:05:41;;;;;;;8.03;4.63;;;3.80;60.80;;;;;;5033055;28;20471;-68
2020/12/26 11:08:07;;;;;;;6.85;3.03;;;4.00;60.60;;;;;;5053476;28;20405;-68
2020/12/26 11:10:37;;;;;;;4.20;2.30;;;3.90;60.00;;;;;;5032166;28;20878;-68
2020/12/26 11:13:03;;;;;;;3.53;2.00;;;3.70;60.50;;;;;;5064852;28;20876;-68
2020/12/26 11:15:29;;;;;;;3.97;2.20;;;3.70;59.80;;;;;;5069815;28;20787;-68
2020/12/26 11:17:56;;;;;;;3.20;1.90;;;3.40;60.70;;;;;;5073412;28;20473;-68
2020/12/26 11:20:24;;;;;;;3.60;2.03;;;3.40;60.40;;;;;;5070004;28;20412;-68
2020/12/26 11:22:51;;;;;;;4.70;2.58;;;3.10;61.00;;;;;;5064304;28;20821;-68
2020/12/26 11:25:17;;;;;;;4.35;2.25;;;3.20;62.20;;;;;;5057521;28;20937;-68
2020/12/26 11:27:46;;;;;;;4.35;2.58;;;3.00;63.20;;;;;;5073188;28;20437;-67
2020/12/26 11:30:12;;;;;;;5.15;2.85;;;3.00;62.70;;;;;;5070699;28;20431;-67
2020/12/26 11:32:39;;;;;;;5.68;2.50;;;2.90;63.00;;;;;;5035153;28;20409;-68
2020/12/26 11:35:05;;;;;;;4.03;2.50;;;2.70;63.90;;;;;;5052946;28;20511;-68
2020/12/26 11:37:32;;;;;;;5.15;2.60;;;3.00;65.10;;;;;;5066850;28;20489;-68
2020/12/26 11:39:58;;;;;;;5.30;2.30;;;3.30;65.20;;;;;;5073144;28;20423;-68
2020/12/26 11:42:24;;;;;;;4.95;2.00;;;3.50;63.00;;;;;;5069385;28;20443;-68
2020/12/26 11:44:52;;;;;;;6.85;3.15;;;3.60;61.60;;;;;;5072834;28;20872;-68
2020/12/26 11:47:21;;;;;;;5.03;2.72;;;3.80;60.50;;;;;;5069203;28;20458;-68
2020/12/26 11:49:47;;;;;;;14.05;7.18;;;4.10;60.20;;;;;;5072697;28;20491;-68
2020/12/26 11:52:15;;;;;;;13.48;6.88;;;4.50;59.40;;;;;;5045398;28;20850;-68
2020/12/26 11:54:41;;;;;;;4.90;2.78;;;4.70;59.50;;;;;;5035562;28;20793;-68
2020/12/26 11:57:07;;;;;;;9.98;5.05;;;4.90;57.40;;;;;;5035821;28;21173;-68
2020/12/26 11:59:34;;;;;;;7.43;3.80;;;5.40;56.30;;;;;;5064191;28;20503;-68
2020/12/26 12:02:03;;;;;;;11.60;5.20;;;6.00;54.20;;;;;;5050639;28;20424;-68
2020/12/26 12:04:29;;;;;;;6.97;4.10;;;5.90;52.60;;;;;;5052663;28;20526;-68
2020/12/26 12:06:55;;;;;;;9.32;5.03;;;5.70;52.10;;;;;;5052120;28;20402;-68
2020/12/26 12:09:22;;;;;;;4.28;2.10;;;4.60;53.80;;;;;;5066620;28;20509;-68
2020/12/26 12:11:52;;;;;;;7.03;3.70;;;4.10;56.30;;;;;;5072243;28;20412;-68
2020/12/26 12:14:19;;;;;;;5.85;2.75;;;3.60;57.70;;;;;;5050621;28;20404;-68
2020/12/26 12:16:51;;;;;;;4.70;2.70;;;3.60;58.60;;;;;;5071771;28;20450;-68
2020/12/26 12:19:17;;;;;;;6.75;3.22;;;3.50;60.00;;;;;;5068830;28;20416;-68
2020/12/26 12:21:45;;;;;;;5.28;2.70;;;3.60;58.20;;;;;;5072596;28;20411;-68
2020/12/26 12:24:11;;;;;;;5.50;2.20;;;3.60;58.80;;;;;;5056417;28;20459;-67
2020/12/26 12:26:38;;;;;;;3.47;1.83;;;3.60;60.20;;;;;;5054603;28;20415;-68
2020/12/26 12:29:04;;;;;;;5.55;2.45;;;3.50;59.40;;;;;;5068385;28;20465;-68
2020/12/26 12:31:37;;;;;;;6.03;3.10;;;3.40;60.90;;;;;;5054709;28;20431;-68
2020/12/26 12:34:04;;;;;;;6.95;3.08;;;3.20;61.90;;;;;;5068536;28;20454;-68
2020/12/26 12:36:30;;;;;;;7.97;3.60;;;3.10;61.60;;;;;;5072004;28;20403;-68
2020/12/26 12:38:57;;;;;;;4.78;2.78;;;3.00;61.70;;;;;;5054288;28;20856;-68
2020/12/26 12:41:24;;;;;;;16.67;6.23;;;3.00;61.40;;;;;;5070214;28;20410;-68
2020/12/26 12:43:50;;;;;;;5.10;2.60;;;2.90;63.00;;;;;;5054452;28;20431;-68
2020/12/26 12:46:17;;;;;;;6.00;2.72;;;2.90;62.30;;;;;;5050531;28;20399;-68
2020/12/26 12:48:43;;;;;;;4.68;2.50;;;3.10;62.60;;;;;;5071452;28;20399;-68
2020/12/26 12:51:12;;;;;;;4.30;2.47;;;3.20;60.90;;;;;;5068400;28;20499;-68
2020/12/26 12:53:39;;;;;;;7.43;3.30;;;3.20;60.40;;;;;;5054246;28;20407;-68
2020/12/26 12:56:05;;;;;;;10.25;4.38;;;3.30;61.10;;;;;;5050164;28;20494;-68
2020/12/26 12:58:31;;;;;;;5.17;2.70;;;3.50;61.10;;;;;;5071867;28;20411;-68
2020/12/26 13:00:58;;;;;;;5.10;2.70;;;3.50;59.70;;;;;;5046934;28;20423;-68
2020/12/26 13:03:28;;;;;;;6.07;2.97;;;3.40;60.40;;;;;;5071055;28;20462;-68